Time;durP1;ratioP1;P1;durP2;ratioP2;P2;SDS_P1;SDS_P2;PMS_P1;PMS_P2;Temp;Humidity;BMP_temperature;BMP_pressure;BME280_temperature;BME280_humidity;BME280_pressure;Samples;Min_cycle;Max_cycle;Signal;HPM_P1;HPM_P2
2023/03/19 00:00:37;;;;;;;2.08;1.60;;;16.10;55.70;;;;;;5027290;28;20046;-49
2023/03/19 00:03:04;;;;;;;2.38;2.17;;;16.10;55.70;;;;;;5031423;28;20052;-48
2023/03/19 00:05:33;;;;;;;2.28;1.55;;;16.10;55.80;;;;;;5025895;28;20517;-51
2023/03/19 00:08:03;;;;;;;2.13;1.52;;;16.20;55.80;;;;;;5028661;28;20046;-49
2023/03/19 00:10:43;;;;;;;2.30;1.85;;;16.10;55.70;;;;;;5032395;28;20049;-47
2023/03/19 00:13:10;;;;;;;2.92;1.70;;;16.20;55.90;;;;;;5020343;28;20046;-51
2023/03/19 00:15:36;;;;;;;3.42;1.80;;;16.10;55.70;;;;;;5027085;28;20442;-48
2023/03/19 00:18:05;;;;;;;2.70;1.80;;;16.10;55.80;;;;;;5031566;28;20720;-47
2023/03/19 00:20:34;;;;;;;2.63;1.77;;;16.10;55.80;;;;;;5029276;28;20453;-50
2023/03/19 00:23:01;;;;;;;2.30;1.73;;;16.00;55.80;;;;;;5015029;28;20121;-47
2023/03/19 00:25:30;;;;;;;2.28;1.60;;;16.00;55.80;;;;;;5024491;28;20056;-48
2023/03/19 00:27:57;;;;;;;4.57;1.95;;;16.00;55.80;;;;;;5031514;28;20037;-50
2023/03/19 00:30:24;;;;;;;1.95;1.30;;;15.90;55.80;;;;;;5029368;28;20036;-51
2023/03/19 00:32:52;;;;;;;2.70;1.80;;;15.80;55.90;;;;;;5019075;28;20077;-49
2023/03/19 00:35:19;;;;;;;3.08;1.63;;;15.80;56.00;;;;;;5012627;28;20050;-50
2023/03/19 00:37:46;;;;;;;2.42;1.73;;;15.70;56.10;;;;;;5014102;28;20120;-51
2023/03/19 00:40:14;;;;;;;2.60;1.65;;;15.60;56.10;;;;;;5021323;28;20152;-51
2023/03/19 00:42:43;;;;;;;1.90;1.60;;;15.60;56.30;;;;;;5013371;28;20096;-48
2023/03/19 00:45:11;;;;;;;2.22;1.70;;;15.50;56.50;;;;;;5013972;28;20045;-51
2023/03/19 00:47:38;;;;;;;4.30;2.10;;;15.40;56.70;;;;;;5014803;28;20049;-51
2023/03/19 00:50:05;;;;;;;2.60;1.70;;;15.40;56.90;;;;;;5005226;28;20506;-49
2023/03/19 00:52:42;;;;;;;1.70;1.50;;;15.30;57.10;;;;;;5016691;28;20056;-52
2023/03/19 00:55:09;;;;;;;2.67;2.15;;;15.30;57.30;;;;;;5011047;28;20055;-47
2023/03/19 00:57:38;;;;;;;2.95;1.92;;;15.30;57.40;;;;;;4998269;28;20616;-48
2023/03/19 01:00:10;;;;;;;2.00;1.60;;;15.30;57.70;;;;;;5026325;28;20053;-48
2023/03/19 01:02:41;;;;;;;1.98;1.85;;;15.20;57.60;;;;;;5012966;28;20046;-48
2023/03/19 01:05:10;;;;;;;2.42;1.88;;;15.20;57.80;;;;;;5005765;28;20068;-51
2023/03/19 01:07:45;;;;;;;2.03;1.92;;;15.20;58.50;;;;;;5030169;28;20034;-48
2023/03/19 01:10:13;;;;;;;2.92;1.90;;;15.20;58.10;;;;;;5030734;28;20042;-47
2023/03/19 01:12:45;;;;;;;2.78;2.15;;;15.20;58.00;;;;;;5030680;28;20037;-48
2023/03/19 01:15:15;;;;;;;3.70;2.58;;;15.20;58.30;;;;;;5022998;28;20442;-48
2023/03/19 01:17:45;;;;;;;2.35;1.58;;;15.20;58.30;;;;;;5014016;28;20140;-47
2023/03/19 01:20:17;;;;;;;1.70;1.60;;;15.20;58.60;;;;;;5012042;28;20064;-47
2023/03/19 01:22:45;;;;;;;3.22;1.73;;;15.20;58.40;;;;;;5018492;28;20034;-47
2023/03/19 01:25:14;;;;;;;1.67;1.58;;;15.30;58.50;;;;;;5021573;28;20045;-47
2023/03/19 01:27:50;;;;;;;1.83;1.50;;;15.20;58.60;;;;;;5013580;28;20049;-48
2023/03/19 01:30:20;;;;;;;2.20;1.52;;;15.30;58.70;;;;;;5008885;28;20049;-47
2023/03/19 01:33:14;;;;;;;2.03;1.77;;;15.30;58.50;;;;;;5016643;28;20587;-50
2023/03/19 01:35:52;;;;;;;2.33;1.70;;;15.30;58.60;;;;;;5012847;28;20060;-47
2023/03/19 01:38:21;;;;;;;3.42;1.92;;;15.30;58.50;;;;;;5008107;28;20046;-51
2023/03/19 01:40:51;;;;;;;2.55;2.03;;;15.30;58.50;;;;;;5013977;28;20117;-49
2023/03/19 01:43:23;;;;;;;1.95;1.48;;;15.30;58.60;;;;;;4993572;28;20128;-51
2023/03/19 01:46:30;;;;;;;1.60;1.50;;;15.40;58.80;;;;;;5009144;28;20046;-47
2023/03/19 01:49:13;;;;;;;1.67;1.58;;;15.40;58.70;;;;;;5009875;28;20206;-48
2023/03/19 01:51:50;;;;;;;3.78;1.35;;;15.40;58.30;;;;;;5008015;28;20137;-48
2023/03/19 01:54:32;;;;;;;2.00;1.70;;;15.40;58.30;;;;;;5011886;28;20052;-49
2023/03/19 01:57:15;;;;;;;2.13;1.60;;;15.50;58.40;;;;;;5013102;28;20076;-51
2023/03/19 02:00:06;;;;;;;3.30;1.73;;;15.40;58.40;;;;;;5026895;28;20472;-48
2023/03/19 02:02:46;;;;;;;2.53;1.50;;;15.50;58.50;;;;;;5022976;28;20041;-48
2023/03/19 02:05:36;;;;;;;2.97;1.70;;;15.50;58.50;;;;;;5029806;28;20049;-51
2023/03/19 02:08:10;;;;;;;3.22;1.55;;;15.50;58.60;;;;;;5004760;28;20060;-47
2023/03/19 02:10:38;;;;;;;2.15;1.55;;;15.50;58.60;;;;;;5004783;28;20417;-48
2023/03/19 02:13:05;;;;;;;3.28;1.83;;;15.50;58.50;;;;;;5011562;28;20044;-49
2023/03/19 02:15:34;;;;;;;1.73;1.50;;;15.50;58.60;;;;;;5021913;28;20469;-52
2023/03/19 02:18:06;;;;;;;3.33;1.50;;;15.50;58.60;;;;;;5004078;28;20046;-48
2023/03/19 02:20:55;;;;;;;2.63;1.75;;;15.50;58.90;;;;;;5007981;28;20042;-52
2023/03/19 02:23:27;;;;;;;3.38;2.10;;;15.50;59.20;;;;;;4996713;28;20717;-51
2023/03/19 02:26:19;;;;;;;3.65;2.10;;;15.50;58.90;;;;;;5008240;28;20068;-49
2023/03/19 02:28:53;;;;;;;2.40;1.80;;;15.40;59.30;;;;;;5022795;28;20087;-49
2023/03/19 02:31:25;;;;;;;3.05;2.00;;;15.40;58.60;;;;;;5012791;28;20046;-49
2023/03/19 02:33:56;;;;;;;2.85;1.70;;;15.40;58.70;;;;;;5017258;28;20529;-48
2023/03/19 02:36:32;;;;;;;1.50;1.33;;;15.40;59.00;;;;;;5030139;28;20037;-50
2023/03/19 02:39:07;;;;;;;2.40;1.83;;;15.40;59.10;;;;;;5011299;28;20045;-51
2023/03/19 02:41:43;;;;;;;3.05;1.85;;;15.40;58.90;;;;;;5014664;28;20116;-47
2023/03/19 02:44:13;;;;;;;2.97;2.00;;;15.40;59.00;;;;;;5011246;28;20041;-48
2023/03/19 02:46:44;;;;;;;2.08;1.88;;;15.30;58.90;;;;;;5018098;28;20570;-51
2023/03/19 02:49:11;;;;;;;2.60;2.40;;;15.30;58.90;;;;;;5017982;28;20100;-48
2023/03/19 02:51:40;;;;;;;3.33;2.10;;;15.30;59.00;;;;;;5005400;28;20037;-51
2023/03/19 02:54:09;;;;;;;2.65;1.90;;;15.30;59.00;;;;;;5003730;28;20050;-51
2023/03/19 02:56:41;;;;;;;2.03;1.77;;;15.30;59.20;;;;;;5011383;28;20056;-47
2023/03/19 02:59:09;;;;;;;5.05;2.10;;;15.20;59.20;;;;;;5007892;28;20049;-47
2023/03/19 03:01:43;;;;;;;2.50;2.30;;;15.30;59.20;;;;;;5002703;28;20061;-47
2023/03/19 03:04:15;;;;;;;3.58;2.10;;;15.20;59.10;;;;;;5005485;28;20049;-49
2023/03/19 03:06:45;;;;;;;2.17;2.03;;;15.20;59.40;;;;;;5003220;28;20583;-48
2023/03/19 03:09:17;;;;;;;2.35;1.90;;;15.20;59.50;;;;;;5012318;28;20129;-48
2023/03/19 03:11:48;;;;;;;4.53;2.33;;;15.20;59.60;;;;;;5028974;28;20060;-48
2023/03/19 03:14:23;;;;;;;2.20;2.00;;;15.20;59.50;;;;;;5009319;28;20060;-48
2023/03/19 03:16:50;;;;;;;2.38;1.73;;;15.20;59.60;;;;;;4992875;28;20053;-48
2023/03/19 03:19:17;;;;;;;2.70;1.98;;;15.20;59.60;;;;;;5020805;28;20053;-50
2023/03/19 03:21:46;;;;;;;3.15;2.13;;;15.20;59.80;;;;;;5018751;28;20049;-47
2023/03/19 03:24:14;;;;;;;3.92;2.08;;;15.20;59.70;;;;;;5015041;28;20045;-48
2023/03/19 03:26:41;;;;;;;3.25;2.08;;;15.20;59.80;;;;;;5021949;28;20127;-49
2023/03/19 03:29:07;;;;;;;3.70;2.15;;;15.20;59.80;;;;;;5009116;28;20083;-48
2023/03/19 03:31:34;;;;;;;4.68;2.13;;;15.30;59.90;;;;;;5029121;28;20525;-48
2023/03/19 03:34:01;;;;;;;2.13;1.77;;;15.30;59.90;;;;;;5022181;28;20049;-48
2023/03/19 03:36:28;;;;;;;4.40;2.42;;;15.30;59.80;;;;;;5032174;28;20049;-47
2023/03/19 03:38:55;;;;;;;3.83;1.98;;;15.30;59.80;;;;;;5014679;28;20045;-51
2023/03/19 03:41:25;;;;;;;3.13;2.08;;;15.40;59.90;;;;;;5012012;28;20038;-49
2023/03/19 03:43:54;;;;;;;1.77;1.50;;;15.40;59.80;;;;;;5017957;28;20100;-50
2023/03/19 03:46:24;;;;;;;15.18;2.75;;;15.40;59.80;;;;;;5030741;28;20475;-48
2023/03/19 03:48:55;;;;;;;5.20;2.72;;;15.40;59.90;;;;;;5014770;28;20573;-50
2023/03/19 03:51:27;;;;;;;4.43;2.20;;;15.40;59.70;;;;;;5005281;28;20045;-49
2023/03/19 03:53:56;;;;;;;4.17;2.03;;;15.40;59.80;;;;;;5013793;28;20046;-49
2023/03/19 03:56:22;;;;;;;2.40;2.00;;;15.40;59.70;;;;;;5012593;28;20049;-51
2023/03/19 03:58:50;;;;;;;5.10;2.55;;;15.40;59.60;;;;;;5012234;28;20469;-50
2023/03/19 04:01:17;;;;;;;2.38;2.05;;;15.50;59.70;;;;;;5023417;28;20046;-52
2023/03/19 04:03:48;;;;;;;3.60;2.70;;;15.50;59.70;;;;;;5012589;28;20111;-48
2023/03/19 04:06:20;;;;;;;3.58;2.08;;;15.50;59.60;;;;;;5005877;28;20120;-51
2023/03/19 04:08:53;;;;;;;2.75;2.00;;;15.50;59.70;;;;;;5014564;28;20037;-51
2023/03/19 04:11:22;;;;;;;3.58;2.03;;;15.50;59.60;;;;;;5031885;28;20108;-50
2023/03/19 04:13:51;;;;;;;3.15;2.05;;;15.50;59.60;;;;;;5010617;28;20038;-48
2023/03/19 04:16:17;;;;;;;5.05;2.45;;;15.50;59.70;;;;;;5015981;28;20521;-49
2023/03/19 04:18:53;;;;;;;2.67;2.30;;;15.40;59.80;;;;;;5014170;28;20052;-46
2023/03/19 04:21:23;;;;;;;3.08;2.60;;;15.50;59.90;;;;;;5025292;28;20045;-49
2023/03/19 04:23:52;;;;;;;3.35;2.22;;;15.50;60.00;;;;;;5029403;28;20045;-51
2023/03/19 04:26:21;;;;;;;3.03;2.58;;;15.40;60.00;;;;;;5014183;28;20079;-48
2023/03/19 04:28:50;;;;;;;3.22;2.05;;;15.40;60.50;;;;;;5017845;28;20053;-47
2023/03/19 04:31:17;;;;;;;2.88;2.15;;;15.40;61.00;;;;;;5005643;28;20118;-47
2023/03/19 04:33:46;;;;;;;3.00;2.53;;;15.40;61.20;;;;;;5002101;28;20050;-50
2023/03/19 04:36:13;;;;;;;3.05;2.85;;;15.40;61.40;;;;;;5028828;28;20529;-47
2023/03/19 04:38:40;;;;;;;3.78;2.47;;;15.30;61.70;;;;;;5010579;28;20518;-52
2023/03/19 04:41:09;;;;;;;4.55;2.90;;;15.30;62.10;;;;;;5024450;28;20442;-47
2023/03/19 04:43:44;;;;;;;4.90;2.60;;;15.30;62.80;;;;;;5009104;28;20711;-49
2023/03/19 04:46:11;;;;;;;3.20;2.30;;;15.20;62.80;;;;;;5010040;28;20105;-48
2023/03/19 04:48:41;;;;;;;2.95;2.75;;;15.20;63.10;;;;;;5021272;28;20565;-48
2023/03/19 04:51:11;;;;;;;3.72;2.58;;;15.20;63.30;;;;;;5009198;28;20168;-47
2023/03/19 04:53:48;;;;;;;2.95;2.50;;;15.10;63.80;;;;;;4999104;28;20057;-49
2023/03/19 04:56:17;;;;;;;4.95;3.00;;;15.20;63.80;;;;;;5007654;28;20038;-51
2023/03/19 04:58:44;;;;;;;4.03;3.40;;;15.10;63.90;;;;;;5004722;28;20260;-49
2023/03/19 05:01:16;;;;;;;4.05;3.03;;;15.10;64.00;;;;;;5014103;28;20050;-51
2023/03/19 05:04:07;;;;;;;4.13;2.88;;;15.10;64.10;;;;;;5021461;28;20421;-49
2023/03/19 05:06:36;;;;;;;4.40;2.92;;;15.10;64.00;;;;;;5002259;28;20050;-48
2023/03/19 05:09:06;;;;;;;3.17;2.88;;;15.10;64.20;;;;;;5013582;28;20045;-50
2023/03/19 05:11:39;;;;;;;3.03;2.70;;;15.00;64.60;;;;;;5021258;28;20049;-46
2023/03/19 05:14:28;;;;;;;3.20;2.90;;;15.00;64.50;;;;;;5017265;28;20050;-51
2023/03/19 05:17:14;;;;;;;3.95;2.80;;;15.00;64.60;;;;;;5014023;28;20484;-48
2023/03/19 05:19:55;;;;;;;2.92;2.63;;;15.00;64.60;;;;;;5006233;28;20405;-51
2023/03/19 05:22:27;;;;;;;2.80;2.58;;;15.00;64.70;;;;;;5008379;28;20418;-49
2023/03/19 05:24:59;;;;;;;3.67;2.85;;;15.00;65.20;;;;;;5031286;28;20091;-47
2023/03/19 05:27:27;;;;;;;3.75;3.05;;;15.00;65.00;;;;;;5012759;28;20049;-51
2023/03/19 05:30:07;;;;;;;3.42;2.70;;;14.90;65.00;;;;;;4999167;28;20065;-51
2023/03/19 05:32:37;;;;;;;3.65;2.85;;;15.00;65.20;;;;;;5021665;28;20133;-51
2023/03/19 05:35:07;;;;;;;3.10;2.80;;;15.00;65.30;;;;;;5013763;28;20434;-47
2023/03/19 05:37:38;;;;;;;3.28;2.90;;;15.00;65.40;;;;;;5013757;28;20045;-47
2023/03/19 05:40:06;;;;;;;2.97;2.72;;;15.00;65.40;;;;;;5019635;28;20087;-48
2023/03/19 05:42:42;;;;;;;2.60;2.40;;;15.00;65.50;;;;;;5012444;28;20045;-50
2023/03/19 05:45:24;;;;;;;2.72;2.25;;;15.00;65.50;;;;;;5013624;28;20457;-50
2023/03/19 05:47:54;;;;;;;3.70;2.90;;;15.00;65.40;;;;;;5010892;28;20099;-48
2023/03/19 05:50:21;;;;;;;3.55;2.72;;;15.00;65.40;;;;;;5005937;28;20056;-47
2023/03/19 05:53:10;;;;;;;4.05;2.53;;;15.00;65.60;;;;;;5007379;28;20058;-47
2023/03/19 05:55:41;;;;;;;4.72;2.75;;;15.00;65.50;;;;;;5013305;28;20506;-48
2023/03/19 05:58:10;;;;;;;3.28;2.95;;;15.00;65.60;;;;;;5013575;28;20564;-49
2023/03/19 06:00:41;;;;;;;4.43;2.88;;;15.00;65.60;;;;;;5010773;28;20049;-47
2023/03/19 06:03:07;;;;;;;3.05;2.75;;;15.00;65.60;;;;;;5001247;28;20533;-48
2023/03/19 06:05:50;;;;;;;3.70;2.67;;;14.90;65.60;;;;;;5006124;28;20034;-47
2023/03/19 06:08:29;;;;;;;;;;;15.00;66.00;;;;;;5011609;28;20061;-50
2023/03/19 06:11:06;;;;;;;2.40;2.20;;;15.00;65.90;;;;;;5013367;28;19921;-51
2023/03/19 06:13:38;;;;;;;3.25;2.95;;;14.90;64.90;;;;;;5005918;28;20050;-48
2023/03/19 06:16:09;;;;;;;4.55;2.65;;;14.90;65.20;;;;;;5028028;28;20048;-48
2023/03/19 06:18:50;;;;;;;3.08;2.78;;;15.00;65.40;;;;;;5004930;28;20525;-48
2023/03/19 06:21:17;;;;;;;3.20;2.90;;;14.90;65.40;;;;;;5009430;28;20132;-47
2023/03/19 06:23:47;;;;;;;3.95;2.80;;;14.90;65.60;;;;;;5022485;28;20045;-48
2023/03/19 06:26:18;;;;;;;3.50;2.92;;;14.90;65.70;;;;;;4998191;28;20136;-50
2023/03/19 06:28:58;;;;;;;3.53;3.22;;;14.90;65.70;;;;;;5005911;28;20168;-50
2023/03/19 06:31:26;;;;;;;3.35;2.83;;;14.90;66.00;;;;;;5027240;28;20410;-47
2023/03/19 06:33:59;;;;;;;3.00;2.80;;;14.90;66.00;;;;;;5011761;28;20053;-49
2023/03/19 06:36:33;;;;;;;3.88;3.10;;;14.90;66.00;;;;;;5012531;28;20096;-47
2023/03/19 06:39:02;;;;;;;5.53;3.40;;;14.90;66.10;;;;;;5001666;28;20049;-51
2023/03/19 06:41:43;;;;;;;3.42;3.13;;;14.90;66.20;;;;;;5028661;28;20120;-49
2023/03/19 06:44:17;;;;;;;2.88;2.67;;;14.90;66.40;;;;;;5009635;28;20049;-48
2023/03/19 06:46:46;;;;;;;3.57;3.27;;;15.00;66.20;;;;;;5021081;28;20047;-51
2023/03/19 06:49:13;;;;;;;3.80;2.83;;;15.00;66.20;;;;;;5005612;28;20311;-47
2023/03/19 06:51:40;;;;;;;3.40;3.10;;;15.00;66.40;;;;;;5009385;28;20051;-49
2023/03/19 06:54:06;;;;;;;3.80;3.50;;;15.00;66.40;;;;;;5020844;28;20052;-50
2023/03/19 06:56:37;;;;;;;3.33;3.03;;;15.00;66.50;;;;;;5028599;28;20560;-48
2023/03/19 06:59:11;;;;;;;4.03;2.63;;;15.10;66.50;;;;;;5021854;28;20057;-51
2023/03/19 07:01:40;;;;;;;2.97;2.78;;;15.10;66.60;;;;;;5025473;28;20107;-49
2023/03/19 07:04:10;;;;;;;3.20;2.85;;;15.10;66.70;;;;;;5028890;28;20045;-48
2023/03/19 07:06:37;;;;;;;3.80;3.35;;;15.20;66.70;;;;;;5028621;28;20095;-48
2023/03/19 07:09:04;;;;;;;3.17;2.80;;;15.20;66.60;;;;;;5024058;28;20064;-50
2023/03/19 07:11:30;;;;;;;3.60;3.20;;;15.30;66.70;;;;;;5011654;28;20080;-50
2023/03/19 07:14:04;;;;;;;3.05;2.85;;;15.30;66.70;;;;;;5007564;28;20406;-49
2023/03/19 07:16:33;;;;;;;3.50;2.57;;;15.50;66.80;;;;;;5018618;28;20184;-47
2023/03/19 07:19:02;;;;;;;3.00;2.65;;;15.40;66.70;;;;;;5028529;28;20342;-49
2023/03/19 07:21:29;;;;;;;3.22;3.03;;;15.50;66.70;;;;;;5021108;28;20502;-50
2023/03/19 07:23:55;;;;;;;3.67;3.38;;;15.50;66.40;;;;;;5013104;28;20047;-52
2023/03/19 07:26:22;;;;;;;3.53;2.90;;;15.60;66.30;;;;;;5024402;28;20053;-48
2023/03/19 07:28:49;;;;;;;3.17;2.70;;;15.60;66.10;;;;;;5017051;28;20432;-49
2023/03/19 07:31:16;;;;;;;3.33;3.03;;;15.60;66.00;;;;;;5013231;28;20499;-47
2023/03/19 07:33:43;;;;;;;4.07;3.63;;;15.60;66.00;;;;;;5017722;28;20040;-50
2023/03/19 07:36:10;;;;;;;3.65;3.10;;;15.60;65.90;;;;;;5016266;28;20038;-48
2023/03/19 07:38:36;;;;;;;3.22;2.97;;;15.70;66.00;;;;;;5016712;28;20042;-50
2023/03/19 07:41:03;;;;;;;4.78;3.67;;;15.60;65.90;;;;;;5029529;28;20519;-49
2023/03/19 07:43:30;;;;;;;3.97;3.10;;;15.70;65.90;;;;;;5024539;28;20037;-52
2023/03/19 07:45:58;;;;;;;3.33;3.03;;;15.60;65.70;;;;;;5026168;28;20419;-49
2023/03/19 07:48:24;;;;;;;3.35;3.05;;;15.70;65.60;;;;;;5014454;28;20046;-50
2023/03/19 07:50:53;;;;;;;5.32;3.42;;;15.70;65.80;;;;;;5012594;28;20038;-49
2023/03/19 07:53:20;;;;;;;3.67;3.38;;;15.70;65.90;;;;;;5025278;28;20116;-47
2023/03/19 07:55:47;;;;;;;3.53;3.22;;;15.70;65.90;;;;;;5022814;28;20042;-48
2023/03/19 07:58:15;;;;;;;4.13;3.70;;;15.70;65.90;;;;;;5024181;28;20521;-51
2023/03/19 08:00:43;;;;;;;4.32;3.78;;;15.70;65.90;;;;;;5023105;28;20526;-49
2023/03/19 08:03:10;;;;;;;4.18;3.78;;;15.70;65.90;;;;;;5024002;28;20553;-49
2023/03/19 08:05:37;;;;;;;3.47;3.20;;;15.70;65.90;;;;;;5021866;28;20041;-49
2023/03/19 08:08:05;;;;;;;3.78;3.17;;;15.70;65.90;;;;;;5015814;28;20052;-49
2023/03/19 08:10:32;;;;;;;4.50;3.80;;;15.70;66.00;;;;;;5020439;28;20048;-47
2023/03/19 08:13:04;;;;;;;4.45;3.47;;;15.70;66.10;;;;;;5024125;28;20088;-50
2023/03/19 08:15:31;;;;;;;3.67;3.35;;;15.70;66.30;;;;;;5019967;28;20033;-48
2023/03/19 08:18:02;;;;;;;3.70;3.40;;;15.70;66.20;;;;;;5022325;28;20460;-48
2023/03/19 08:20:30;;;;;;;4.18;3.78;;;15.80;66.30;;;;;;5024774;28;20101;-49
2023/03/19 08:22:57;;;;;;;4.38;3.97;;;15.80;66.30;;;;;;5030416;28;20115;-49
2023/03/19 08:25:24;;;;;;;6.05;5.43;;;15.90;66.40;;;;;;5022448;28;20052;-49
2023/03/19 08:27:51;;;;;;;3.53;3.22;;;15.90;66.40;;;;;;5025256;28;20052;-47
2023/03/19 08:30:18;;;;;;;5.07;4.53;;;15.90;66.40;;;;;;5024794;28;20041;-50
2023/03/19 08:32:44;;;;;;;5.00;4.50;;;15.90;66.50;;;;;;5025863;28;20065;-47
2023/03/19 08:35:11;;;;;;;5.30;4.80;;;16.00;66.30;;;;;;5024090;28;20042;-49
2023/03/19 08:37:39;;;;;;;4.85;4.35;;;16.00;66.40;;;;;;5024772;28;20045;-50
2023/03/19 08:40:07;;;;;;;5.70;4.28;;;16.00;66.30;;;;;;5021000;28;20531;-49
2023/03/19 08:42:34;;;;;;;5.53;5.03;;;16.00;66.10;;;;;;5024459;28;20038;-48
2023/03/19 08:45:00;;;;;;;5.07;4.38;;;16.00;66.20;;;;;;5024171;28;20037;-51
2023/03/19 08:47:30;;;;;;;5.07;4.35;;;16.00;65.90;;;;;;5002196;28;20449;-48
2023/03/19 08:49:56;;;;;;;5.30;4.80;;;16.00;65.80;;;;;;5022973;28;20414;-51
2023/03/19 08:52:23;;;;;;;4.90;4.45;;;16.00;65.80;;;;;;5019652;28;20502;-47
2023/03/19 08:54:49;;;;;;;5.70;4.78;;;16.00;65.70;;;;;;5023529;28;20556;-50
2023/03/19 08:57:16;;;;;;;5.50;5.00;;;15.90;65.50;;;;;;5021034;28;20041;-50
2023/03/19 08:59:43;;;;;;;4.55;4.07;;;16.00;65.70;;;;;;5029106;28;20057;-48
2023/03/19 09:02:11;;;;;;;5.40;4.93;;;15.80;65.90;;;;;;5023503;28;20045;-48
2023/03/19 09:04:44;;;;;;;5.65;5.15;;;15.80;65.90;;;;;;5021620;28;20048;-47
2023/03/19 09:07:14;;;;;;;5.35;4.85;;;15.80;66.20;;;;;;5023775;28;20041;-49
2023/03/19 09:09:42;;;;;;;5.70;5.18;;;15.70;66.40;;;;;;5025090;28;20065;-49
2023/03/19 09:12:14;;;;;;;5.55;5.05;;;15.70;66.90;;;;;;5022646;28;20515;-48
2023/03/19 09:14:43;;;;;;;4.93;4.47;;;15.80;67.20;;;;;;5005850;28;20045;-47
2023/03/19 09:17:12;;;;;;;5.47;4.80;;;15.90;67.20;;;;;;5020358;28;20529;-47
2023/03/19 09:19:39;;;;;;;5.10;4.55;;;16.00;66.90;;;;;;5029530;28;20513;-48
2023/03/19 09:22:06;;;;;;;5.47;4.43;;;16.10;66.30;;;;;;5024160;28;20060;-46
2023/03/19 09:24:33;;;;;;;4.72;4.28;;;16.20;65.90;;;;;;5006377;28;20646;-48
2023/03/19 09:27:05;;;;;;;5.57;4.68;;;16.20;65.50;;;;;;5022770;28;20049;-46
2023/03/19 09:29:32;;;;;;;6.95;4.97;;;16.30;64.80;;;;;;5021724;28;20441;-47
2023/03/19 09:31:59;;;;;;;5.90;5.15;;;16.40;64.60;;;;;;5020073;28;20046;-49
2023/03/19 09:34:26;;;;;;;5.53;4.93;;;16.40;64.20;;;;;;5028866;28;20148;-49
2023/03/19 09:36:53;;;;;;;6.28;5.68;;;16.40;64.20;;;;;;5024455;28;20409;-48
2023/03/19 09:39:19;;;;;;;6.13;5.03;;;16.40;64.70;;;;;;5025249;28;20041;-51
2023/03/19 09:42:12;;;;;;;6.93;5.03;;;16.50;64.70;;;;;;5022544;28;20460;-51
2023/03/19 09:44:43;;;;;;;5.97;5.15;;;16.50;64.30;;;;;;5024041;28;20061;-50
2023/03/19 09:47:33;;;;;;;5.47;4.57;;;16.60;63.60;;;;;;5021319;28;20057;-48
2023/03/19 09:50:09;;;;;;;5.88;4.53;;;16.60;62.70;;;;;;5027616;28;20041;-48
2023/03/19 09:52:47;;;;;;;7.03;5.55;;;16.50;62.40;;;;;;5023501;28;20048;-49
2023/03/19 09:55:20;;;;;;;5.43;4.93;;;16.50;62.50;;;;;;5024605;28;20053;-51
2023/03/19 09:57:47;;;;;;;5.60;5.10;;;16.40;62.30;;;;;;5026412;28;20037;-48
2023/03/19 10:00:27;;;;;;;5.90;5.10;;;16.40;62.40;;;;;;5026498;28;20044;-47
2023/03/19 10:03:07;;;;;;;5.45;4.90;;;16.40;62.50;;;;;;5006234;28;20504;-47
2023/03/19 10:06:16;;;;;;;7.90;5.70;;;16.40;62.90;;;;;;5017741;28;20056;-48
2023/03/19 10:09:03;;;;;;;4.82;4.18;;;16.30;62.90;;;;;;5027022;28;20045;-48
2023/03/19 10:11:38;;;;;;;5.20;3.65;;;16.30;62.50;;;;;;5023194;28;20034;-47
2023/03/19 10:14:23;;;;;;;3.65;3.05;;;16.20;62.60;;;;;;5023076;28;20095;-49
2023/03/19 10:16:53;;;;;;;3.38;2.92;;;16.30;62.80;;;;;;5022557;28;20084;-48
2023/03/19 10:19:23;;;;;;;2.65;2.42;;;16.30;62.90;;;;;;5020926;28;20037;-49
2023/03/19 10:21:56;;;;;;;3.17;2.35;;;16.40;62.70;;;;;;5024113;28;20041;-47
2023/03/19 10:24:37;;;;;;;2.92;1.75;;;16.50;62.40;;;;;;5021015;28;20112;-48
2023/03/19 10:27:21;;;;;;;2.67;1.73;;;16.60;61.80;;;;;;5021060;28;20406;-47
2023/03/19 10:29:48;;;;;;;2.58;1.75;;;16.70;62.10;;;;;;5021464;28;20042;-48
2023/03/19 10:32:36;;;;;;;1.73;1.60;;;16.80;61.60;;;;;;5024245;28;20042;-50
2023/03/19 10:35:18;;;;;;;3.70;1.90;;;17.00;60.60;;;;;;5022324;28;20126;-49
2023/03/19 10:37:50;;;;;;;1.90;1.80;;;17.10;59.80;;;;;;5026302;28;20034;-47
2023/03/19 10:40:24;;;;;;;1.95;1.85;;;17.20;59.40;;;;;;5020661;28;20703;-50
2023/03/19 10:43:14;;;;;;;2.55;2.00;;;17.30;59.50;;;;;;5026107;28;20041;-51
2023/03/19 10:45:41;;;;;;;2.10;1.73;;;17.40;59.50;;;;;;5022757;28;20041;-48
2023/03/19 10:48:14;;;;;;;3.47;1.85;;;17.40;59.00;;;;;;5003868;28;20061;-48
2023/03/19 10:50:47;;;;;;;1.73;1.63;;;17.40;58.70;;;;;;5025374;28;20045;-47
2023/03/19 10:53:16;;;;;;;2.28;1.85;;;17.40;58.20;;;;;;5025588;28;20498;-49
2023/03/19 10:55:55;;;;;;;2.22;1.83;;;17.40;58.40;;;;;;5006225;28;20091;-48
2023/03/19 10:58:25;;;;;;;2.35;2.10;;;17.40;59.00;;;;;;5021266;28;20128;-46
2023/03/19 11:00:58;;;;;;;2.70;1.90;;;17.40;58.70;;;;;;5022200;28;20577;-47
2023/03/19 11:03:32;;;;;;;2.47;2.28;;;17.40;58.60;;;;;;5023364;28;20049;-51
2023/03/19 11:06:18;;;;;;;1.75;1.48;;;17.40;58.70;;;;;;5018494;28;20502;-50
2023/03/19 11:08:56;;;;;;;3.35;1.88;;;17.40;58.30;;;;;;5024095;28;20120;-48
2023/03/19 11:11:41;;;;;;;1.75;1.58;;;17.50;58.80;;;;;;5022388;28;20034;-48
2023/03/19 11:14:09;;;;;;;2.97;1.95;;;17.50;58.70;;;;;;5021250;28;20387;-48
2023/03/19 11:16:55;;;;;;;1.35;1.20;;;17.60;58.50;;;;;;5025341;28;20048;-47
2023/03/19 11:19:28;;;;;;;2.22;1.33;;;17.70;58.20;;;;;;5029943;28;20076;-50
2023/03/19 11:22:06;;;;;;;2.78;1.52;;;17.80;57.90;;;;;;5015415;28;20037;-51
2023/03/19 11:24:36;;;;;;;1.85;1.48;;;17.80;57.50;;;;;;5024108;28;20048;-48
2023/03/19 11:27:04;;;;;;;2.67;1.50;;;17.90;57.60;;;;;;5024966;28;20048;-48
2023/03/19 11:29:32;;;;;;;2.85;1.83;;;17.90;57.20;;;;;;5029271;28;20046;-48
2023/03/19 11:32:08;;;;;;;4.30;2.10;;;17.90;57.00;;;;;;5028976;28;20046;-47
2023/03/19 11:34:56;;;;;;;3.08;1.48;;;17.90;56.60;;;;;;5024178;28;20466;-47
2023/03/19 11:38:02;;;;;;;2.92;2.35;;;18.00;56.50;;;;;;5025778;28;20045;-49
2023/03/19 11:41:01;;;;;;;3.95;1.73;;;18.00;56.00;;;;;;4993157;28;20128;-47
2023/03/19 11:44:03;;;;;;;3.55;2.40;;;18.10;56.00;;;;;;5021257;28;20046;-48
2023/03/19 11:46:43;;;;;;;2.10;1.90;;;18.10;56.50;;;;;;5026716;28;20064;-47
2023/03/19 11:49:41;;;;;;;2.22;1.92;;;18.10;57.40;;;;;;5029664;28;20053;-48
2023/03/19 11:52:23;;;;;;;3.00;2.10;;;18.10;55.80;;;;;;5024016;28;20457;-48
2023/03/19 11:54:53;;;;;;;2.67;2.08;;;18.10;55.70;;;;;;5023400;28;20045;-47
2023/03/19 11:57:58;;;;;;;2.00;1.90;;;18.20;55.70;;;;;;5030453;28;20418;-47
2023/03/19 12:00:34;;;;;;;1.85;1.75;;;18.20;55.40;;;;;;4990460;28;20054;-49
2023/03/19 12:03:20;;;;;;;4.25;3.00;;;18.20;56.00;;;;;;5033348;28;20048;-47
2023/03/19 12:06:11;;;;;;;2.60;2.00;;;18.30;55.30;;;;;;5028557;28;20049;-48
2023/03/19 12:09:00;;;;;;;3.28;2.10;;;18.30;55.00;;;;;;5027908;28;20537;-48
2023/03/19 12:11:44;;;;;;;3.20;2.22;;;18.40;55.00;;;;;;5031257;28;20417;-48
2023/03/19 12:14:25;;;;;;;1.60;1.50;;;18.40;55.70;;;;;;5029876;28;20049;-48
2023/03/19 12:17:07;;;;;;;1.85;1.75;;;18.40;55.40;;;;;;5034839;28;20087;-47
2023/03/19 12:19:40;;;;;;;2.03;1.60;;;18.40;55.00;;;;;;5037263;28;20049;-47
2023/03/19 12:22:31;;;;;;;1.73;1.60;;;18.40;54.70;;;;;;5024629;28;20042;-49
2023/03/19 12:25:04;;;;;;;2.13;1.90;;;18.40;54.20;;;;;;5021248;28;20049;-50
2023/03/19 12:27:50;;;;;;;4.03;3.17;;;18.40;54.70;;;;;;5029454;28;20084;-47
2023/03/19 12:30:23;;;;;;;4.15;3.03;;;18.40;54.70;;;;;;5032246;28;20052;-47
2023/03/19 12:32:52;;;;;;;;;;;18.40;54.60;;;;;;5029041;28;20048;-49
2023/03/19 12:35:27;;;;;;;2.08;1.73;;;18.40;55.00;;;;;;5032651;28;19983;-50
2023/03/19 12:38:11;;;;;;;2.95;2.40;;;18.40;54.80;;;;;;5025268;28;20037;-49
2023/03/19 12:40:44;;;;;;;2.55;2.35;;;18.40;54.60;;;;;;5016362;28;20117;-49
2023/03/19 12:43:29;;;;;;;2.63;2.42;;;18.40;54.90;;;;;;5030873;28;20073;-47
2023/03/19 12:46:02;;;;;;;3.35;3.05;;;18.40;54.70;;;;;;5025711;28;20045;-47
2023/03/19 12:48:36;;;;;;;2.70;2.28;;;18.40;54.50;;;;;;5012837;28;20140;-50
2023/03/19 12:51:10;;;;;;;2.95;2.40;;;18.50;54.50;;;;;;5024362;28;20417;-50
2023/03/19 12:54:13;;;;;;;3.03;2.72;;;18.40;54.00;;;;;;5028750;28;20052;-47
2023/03/19 12:57:00;;;;;;;2.20;2.03;;;18.50;54.40;;;;;;5010811;28;20053;-47
2023/03/19 13:00:14;;;;;;;3.15;2.72;;;18.40;54.10;;;;;;5022520;28;20034;-50
2023/03/19 13:02:56;;;;;;;2.13;1.95;;;18.40;53.90;;;;;;4994613;28;20053;-46
2023/03/19 13:05:31;;;;;;;3.65;2.45;;;18.50;53.70;;;;;;5031033;28;20048;-48
2023/03/19 13:08:26;;;;;;;2.85;2.58;;;18.40;54.00;;;;;;5019100;28;20038;-47
2023/03/19 13:10:53;;;;;;;2.58;2.38;;;18.40;53.90;;;;;;5027682;28;20050;-49
2023/03/19 13:13:48;;;;;;;2.85;2.55;;;18.40;54.30;;;;;;5030972;28;20049;-47
2023/03/19 13:16:36;;;;;;;2.78;2.58;;;18.40;54.30;;;;;;5024689;28;20120;-48
2023/03/19 13:19:36;;;;;;;3.75;2.95;;;18.40;54.40;;;;;;5025923;28;20034;-47